Time;durP1;ratioP1;P1;durP2;ratioP2;P2;SDS_P1;SDS_P2;PMS_P1;PMS_P2;Temp;Humidity;BMP_temperature;BMP_pressure;BME280_temperature;BME280_humidity;BME280_pressure;Samples;Min_cycle;Max_cycle;Signal;HPM_P1;HPM_P2
2021/06/24 00:00:36;;;;;;;;;;;;;;;;;;5072679;28;20537;-77
2021/06/24 00:03:02;;;;;;;8.18;5.80;;;;;;;;;;5072612;28;19999;-76
2021/06/24 00:05:28;;;;;;;7.57;5.87;;;;;;;;;;5073032;28;20107;-77
2021/06/24 00:07:54;;;;;;;8.35;5.60;;;;;;;;;;5074323;28;20355;-77
2021/06/24 00:10:20;;;;;;;10.75;5.80;;;;;;;;;;5092450;28;20035;-75
2021/06/24 00:12:46;;;;;;;9.57;5.97;;;;;;;;;;5087306;28;20115;-75
2021/06/24 00:15:13;;;;;;;7.47;5.60;;;;;;;;;;5071152;28;20043;-77
2021/06/24 00:17:42;;;;;;;7.20;5.80;;;;;;;;;;5072559;28;20082;-76
2021/06/24 00:20:08;;;;;;;8.70;5.38;;;;;;;;;;5073508;28;20024;-75
2021/06/24 00:22:34;;;;;;;8.18;5.97;;;;;;;;;;5071775;28;20103;-77
2021/06/24 00:25:00;;;;;;;9.50;6.10;;;;;;;;;;5051598;28;20033;-77
2021/06/24 00:27:26;;;;;;;9.30;5.90;;;;;;;;;;5052127;28;20533;-75
2021/06/24 00:29:52;;;;;;;10.63;5.97;;;;;;;;;;5052599;28;20051;-77
2021/06/24 00:32:18;;;;;;;6.70;5.70;;;;;;;;;;5053048;28;20024;-76
2021/06/24 00:34:44;;;;;;;9.88;5.75;;;;;;;;;;5050748;28;20406;-76
2021/06/24 00:37:10;;;;;;;10.40;5.97;;;;;;;;;;5058203;28;20028;-77
2021/06/24 00:39:36;;;;;;;8.57;5.78;;;;;;;;;;5071077;28;20684;-74
2021/06/24 00:42:02;;;;;;;9.65;5.60;;;;;;;;;;5071160;28;20024;-76
2021/06/24 00:44:29;;;;;;;10.50;6.35;;;;;;;;;;5074184;28;20020;-77
2021/06/24 00:46:55;;;;;;;7.30;5.50;;;;;;;;;;5082086;28;20493;-75
2021/06/24 00:49:21;;;;;;;8.40;5.93;;;;;;;;;;5084539;28;20040;-77
2021/06/24 00:51:48;;;;;;;8.40;5.57;;;;;;;;;;5081796;28;20264;-76
2021/06/24 00:54:14;;;;;;;;;;;;;;;;;;5079405;28;20081;-74
2021/06/24 00:56:40;;;;;;;7.00;5.57;;;;;;;;;;5089391;28;20356;-75
2021/06/24 00:59:06;;;;;;;7.90;6.13;;;;;;;;;;5091535;28;20465;-75
2021/06/24 01:01:32;;;;;;;6.30;5.70;;;;;;;;;;5090932;28;20047;-76
2021/06/24 01:03:59;;;;;;;7.85;5.63;;;;;;;;;;5092058;28;20027;-77
2021/06/24 01:06:25;;;;;;;7.97;5.30;;;;;;;;;;5092302;28;20020;-75
2021/06/24 01:08:51;;;;;;;7.50;5.33;;;;;;;;;;5087227;28;20525;-75
2021/06/24 01:11:18;;;;;;;10.27;5.82;;;;;;;;;;5070222;28;20050;-75
2021/06/24 01:13:45;;;;;;;6.57;5.47;;;;;;;;;;5071770;28;20232;-77
2021/06/24 01:16:11;;;;;;;9.15;5.28;;;;;;;;;;5071296;28;20029;-74
2021/06/24 01:18:37;;;;;;;6.72;5.85;;;;;;;;;;5071526;28;20389;-76
2021/06/24 01:21:03;;;;;;;6.78;5.55;;;;;;;;;;5079317;28;20449;-75
2021/06/24 01:23:36;;;;;;;7.88;5.63;;;;;;;;;;5067791;28;20094;-76
2021/06/24 01:26:02;;;;;;;9.23;6.03;;;;;;;;;;5052064;28;20032;-77
2021/06/24 01:28:28;;;;;;;9.60;5.87;;;;;;;;;;5066548;28;20024;-77
2021/06/24 01:30:54;;;;;;;9.30;5.65;;;;;;;;;;5076683;28;20103;-76
2021/06/24 01:33:20;;;;;;;;;;;;;;;;;;4361339;28;10000726;-75
2021/06/24 01:35:46;;;;;;;9.82;5.78;;;;;;;;;;5051206;28;20381;-75
2021/06/24 01:38:12;;;;;;;6.30;5.20;;;;;;;;;;5059796;28;20104;-77
2021/06/24 01:40:39;;;;;;;7.03;5.80;;;;;;;;;;5090597;28;20058;-74
2021/06/24 01:43:05;;;;;;;6.93;5.68;;;;;;;;;;5082878;28;20024;-75
2021/06/24 01:45:31;;;;;;;7.53;6.00;;;;;;;;;;5071168;28;20074;-75
2021/06/24 01:47:57;;;;;;;10.05;6.35;;;;;;;;;;5070399;28;20048;-75
2021/06/24 01:50:24;;;;;;;8.53;5.70;;;;;;;;;;5071158;28;20488;-77
2021/06/24 01:52:50;;;;;;;7.50;5.65;;;;;;;;;;5066574;28;20250;-76
2021/06/24 01:55:17;;;;;;;8.30;5.75;;;;;;;;;;5051021;28;20017;-74
2021/06/24 01:57:43;;;;;;;6.25;5.63;;;;;;;;;;5055072;28;20036;-76
2021/06/24 02:00:13;;;;;;;6.72;5.70;;;;;;;;;;5071797;28;20024;-76
2021/06/24 02:02:40;;;;;;;6.55;5.38;;;;;;;;;;5070740;28;20056;-75
2021/06/24 02:05:07;;;;;;;8.15;5.68;;;;;;;;;;5070698;28;20367;-76
2021/06/24 02:07:34;;;;;;;6.72;5.80;;;;;;;;;;5070410;28;20473;-77
2021/06/24 02:10:00;;;;;;;9.15;6.20;;;;;;;;;;5070827;28;20082;-76
2021/06/24 02:12:26;;;;;;;6.80;5.83;;;;;;;;;;5070160;28;20032;-78
2021/06/24 02:14:52;;;;;;;11.48;5.85;;;;;;;;;;5072742;28;20271;-75
2021/06/24 02:17:18;;;;;;;7.67;6.03;;;;;;;;;;5080772;28;20066;-75
2021/06/24 02:19:45;;;;;;;6.65;5.80;;;;;;;;;;5079279;28;20481;-76
2021/06/24 02:22:11;;;;;;;8.85;5.97;;;;;;;;;;5077392;28;20024;-77
2021/06/24 02:24:37;;;;;;;7.68;5.82;;;;;;;;;;5082453;28;20380;-74
2021/06/24 02:27:03;;;;;;;7.23;5.90;;;;;;;;;;5084230;28;20034;-75
2021/06/24 02:29:29;;;;;;;7.93;5.78;;;;;;;;;;5080893;28;20500;-76
2021/06/24 02:31:55;;;;;;;6.37;5.67;;;;;;;;;;5083990;28;20122;-77
2021/06/24 02:34:22;;;;;;;7.40;5.90;;;;;;;;;;5083271;28;20035;-76
2021/06/24 02:36:48;;;;;;;7.93;5.90;;;;;;;;;;5082980;28;20351;-76
2021/06/24 02:39:14;;;;;;;6.70;5.53;;;;;;;;;;5080640;28;20040;-75
2021/06/24 02:41:40;;;;;;;7.93;6.00;;;;;;;;;;5083251;28;20284;-76
2021/06/24 02:44:06;;;;;;;7.45;5.63;;;;;;;;;;5082262;28;20520;-75
2021/06/24 02:46:32;;;;;;;8.97;5.70;;;;;;;;;;5082189;28;20081;-76
2021/06/24 02:48:58;;;;;;;8.73;6.05;;;;;;;;;;5079873;28;20056;-76
2021/06/24 02:51:24;;;;;;;9.13;5.68;;;;;;;;;;5081590;28;20058;-75
2021/06/24 02:53:50;;;;;;;17.70;6.27;;;;;;;;;;5077317;28;20028;-76
2021/06/24 02:56:17;;;;;;;8.63;6.20;;;;;;;;;;5074444;28;20268;-75
2021/06/24 02:58:43;;;;;;;8.23;6.22;;;;;;;;;;5074669;28;20074;-74
2021/06/24 03:01:09;;;;;;;8.52;5.85;;;;;;;;;;5075032;28;20468;-75
2021/06/24 03:03:37;;;;;;;7.67;5.30;;;;;;;;;;5074536;28;20112;-76
2021/06/24 03:06:03;;;;;;;6.70;5.70;;;;;;;;;;5074045;28;20575;-76
2021/06/24 03:08:29;;;;;;;9.07;5.73;;;;;;;;;;5072094;28;20058;-76
2021/06/24 03:10:56;;;;;;;8.67;6.23;;;;;;;;;;5072397;28;20321;-77
2021/06/24 03:13:22;;;;;;;7.70;5.93;;;;;;;;;;5073468;28;20029;-76
2021/06/24 03:15:48;;;;;;;7.57;5.43;;;;;;;;;;5073192;28;20033;-73
2021/06/24 03:18:14;;;;;;;10.70;5.97;;;;;;;;;;5073149;28;20047;-73
2021/06/24 03:20:40;;;;;;;6.80;5.53;;;;;;;;;;5071632;28;20098;-77
2021/06/24 03:23:06;;;;;;;8.57;6.05;;;;;;;;;;5067264;28;20246;-76
2021/06/24 03:25:32;;;;;;;7.00;5.90;;;;;;;;;;5053743;28;20021;-75
2021/06/24 03:27:58;;;;;;;11.02;5.90;;;;;;;;;;5054239;28;20389;-76
2021/06/24 03:30:24;;;;;;;11.00;6.20;;;;;;;;;;5072561;28;20028;-77
2021/06/24 03:32:51;;;;;;;6.90;5.80;;;;;;;;;;5073578;28;20452;-77
2021/06/24 03:35:17;;;;;;;9.13;5.72;;;;;;;;;;5074560;28;20021;-75
2021/06/24 03:37:43;;;;;;;9.23;6.13;;;;;;;;;;5066126;28;20052;-76
2021/06/24 03:40:16;;;;;;;9.80;6.50;;;;;;;;;;5052256;28;20477;-74
2021/06/24 03:42:42;;;;;;;8.55;5.95;;;;;;;;;;5057994;28;20027;-77
2021/06/24 03:45:09;;;;;;;7.00;6.30;;;;;;;;;;5071727;28;20420;-75
2021/06/24 03:47:35;;;;;;;7.57;6.32;;;;;;;;;;5073776;28;20094;-75
2021/06/24 03:50:01;;;;;;;8.27;6.13;;;;;;;;;;5074293;28;20062;-77
2021/06/24 03:52:27;;;;;;;8.13;6.13;;;;;;;;;;5065072;28;20405;-76
2021/06/24 03:54:53;;;;;;;8.15;6.35;;;;;;;;;;5063218;28;20032;-77
2021/06/24 03:57:19;;;;;;;9.20;5.73;;;;;;;;;;5073683;28;20032;-75
2021/06/24 03:59:45;;;;;;;7.65;6.38;;;;;;;;;;5073751;28;20028;-75
2021/06/24 04:02:11;;;;;;;7.07;5.93;;;;;;;;;;5072485;28;20039;-76
2021/06/24 04:04:37;;;;;;;7.75;5.93;;;;;;;;;;5073289;28;20425;-76
2021/06/24 04:07:03;;;;;;;11.77;7.07;;;;;;;;;;5071669;28;20036;-76
2021/06/24 04:09:29;;;;;;;7.37;5.90;;;;;;;;;;5072912;28;20115;-75
2021/06/24 04:11:55;;;;;;;8.25;6.15;;;;;;;;;;5073367;28;20268;-75
2021/06/24 04:14:21;;;;;;;8.73;6.30;;;;;;;;;;5074354;28;20036;-75
2021/06/24 04:16:47;;;;;;;9.25;6.20;;;;;;;;;;5072938;28;20099;-75
2021/06/24 04:19:14;;;;;;;9.50;6.57;;;;;;;;;;5072930;28;20031;-76
2021/06/24 04:21:40;;;;;;;;;;;;;;;;;;5070597;28;20545;-78
2021/06/24 04:24:06;;;;;;;9.25;6.35;;;;;;;;;;5058119;28;20011;-74
2021/06/24 04:26:32;;;;;;;7.73;6.07;;;;;;;;;;5053653;28;20390;-75
2021/06/24 04:28:58;;;;;;;6.80;6.10;;;;;;;;;;5052932;28;20031;-76
2021/06/24 04:31:24;;;;;;;6.43;5.83;;;;;;;;;;5053250;28;20108;-75
2021/06/24 04:33:50;;;;;;;7.47;5.93;;;;;;;;;;5053051;28;20028;-75
2021/06/24 04:36:16;;;;;;;6.93;5.83;;;;;;;;;;5051921;28;20051;-76
2021/06/24 04:38:42;;;;;;;7.15;6.15;;;;;;;;;;5067744;28;20094;-76
2021/06/24 04:41:09;;;;;;;6.82;6.10;;;;;;;;;;5072752;28;20424;-75
2021/06/24 04:43:35;;;;;;;6.83;5.80;;;;;;;;;;5072697;28;20062;-78
2021/06/24 04:46:01;;;;;;;9.38;6.65;;;;;;;;;;5070924;28;20032;-78
2021/06/24 04:48:27;;;;;;;9.37;6.33;;;;;;;;;;5069616;28;20062;-75
2021/06/24 04:50:53;;;;;;;11.43;6.63;;;;;;;;;;5073006;28;20040;-74
2021/06/24 04:53:19;;;;;;;10.07;6.50;;;;;;;;;;5065599;28;20454;-77
2021/06/24 04:55:45;;;;;;;8.32;6.70;;;;;;;;;;5052642;28;20033;-75
2021/06/24 04:58:11;;;;;;;13.50;6.40;;;;;;;;;;5051379;28;20127;-77
2021/06/24 05:00:37;;;;;;;9.00;7.30;;;;;;;;;;5051294;28;20104;-77
2021/06/24 05:03:04;;;;;;;10.15;8.05;;;;;;;;;;5052869;28;20477;-76
2021/06/24 05:05:30;;;;;;;12.55;8.18;;;;;;;;;;5052920;28;20386;-76
2021/06/24 05:07:57;;;;;;;11.30;8.55;;;;;;;;;;5061195;28;20016;-77
2021/06/24 05:10:23;;;;;;;12.07;8.80;;;;;;;;;;5071784;28;20021;-76
2021/06/24 05:12:50;;;;;;;11.85;8.88;;;;;;;;;;5072153;28;20470;-76
2021/06/24 05:15:16;;;;;;;10.15;8.70;;;;;;;;;;5078321;28;20078;-75
2021/06/24 05:17:42;;;;;;;11.52;8.57;;;;;;;;;;5078462;28;20405;-75
2021/06/24 05:20:09;;;;;;;11.05;8.90;;;;;;;;;;5070826;28;20025;-75
2021/06/24 05:22:36;;;;;;;11.35;8.50;;;;;;;;;;5071232;28;20027;-75
2021/06/24 05:25:02;;;;;;;13.15;8.85;;;;;;;;;;5070029;28;20496;-75
2021/06/24 05:27:28;;;;;;;11.07;8.98;;;;;;;;;;5070955;28;20469;-74
2021/06/24 05:29:54;;;;;;;10.53;9.10;;;;;;;;;;5072066;28;20094;-75
2021/06/24 05:32:20;;;;;;;9.60;8.60;;;;;;;;;;5071826;28;20488;-75
2021/06/24 05:34:46;;;;;;;11.20;8.57;;;;;;;;;;5071888;28;20089;-76
2021/06/24 05:37:12;;;;;;;10.50;8.90;;;;;;;;;;5070748;28;20755;-76
2021/06/24 05:39:38;;;;;;;12.02;8.80;;;;;;;;;;5081640;28;20996;-76
2021/06/24 05:42:04;;;;;;;12.10;9.70;;;;;;;;;;5070700;28;20024;-76
2021/06/24 05:44:30;;;;;;;12.10;9.52;;;;;;;;;;5072480;28;20090;-75
2021/06/24 05:46:56;;;;;;;12.45;9.27;;;;;;;;;;5070626;28;20102;-74
2021/06/24 05:49:23;;;;;;;10.50;9.37;;;;;;;;;;5071027;28;20020;-76
2021/06/24 05:51:49;;;;;;;15.13;10.23;;;;;;;;;;5074473;28;20028;-75
2021/06/24 05:54:15;;;;;;;12.83;9.10;;;;;;;;;;5077318;28;20035;-76
2021/06/24 05:56:41;;;;;;;15.80;10.00;;;;;;;;;;5081732;28;21033;-74
2021/06/24 05:59:07;;;;;;;11.00;8.90;;;;;;;;;;5072259;28;20064;-76
2021/06/24 06:01:34;;;;;;;12.00;9.32;;;;;;;;;;5072967;28;20028;-75
2021/06/24 06:04:00;;;;;;;15.77;9.38;;;;;;;;;;5070623;28;20056;-76
2021/06/24 06:06:26;;;;;;;12.57;9.60;;;;;;;;;;5080863;28;20050;-77
2021/06/24 06:08:52;;;;;;;12.88;9.55;;;;;;;;;;5082687;28;20103;-78
2021/06/24 06:11:18;;;;;;;10.60;9.40;;;;;;;;;;5070462;28;20028;-76
2021/06/24 06:13:44;;;;;;;12.90;9.27;;;;;;;;;;5069932;28;20094;-78
2021/06/24 06:16:11;;;;;;;12.20;9.53;;;;;;;;;;5071590;28;20032;-74
2021/06/24 06:18:37;;;;;;;13.20;9.23;;;;;;;;;;5077317;28;20381;-75
2021/06/24 06:21:03;;;;;;;12.23;8.80;;;;;;;;;;5083148;28;20020;-76
2021/06/24 06:23:32;;;;;;;10.80;8.77;;;;;;;;;;5081541;28;20078;-76
2021/06/24 06:25:58;;;;;;;16.05;7.68;;;;;;;;;;4712694;28;10000321;-76
2021/06/24 06:28:25;;;;;;;13.10;7.67;;;;;;;;;;5058474;28;20029;-77
2021/06/24 06:30:52;;;;;;;9.98;8.00;;;;;;;;;;5055587;28;20033;-76
2021/06/24 06:33:19;;;;;;;9.13;7.28;;;;;;;;;;5056326;28;20477;-74
2021/06/24 06:35:45;;;;;;;9.60;7.28;;;;;;;;;;5057476;28;20162;-77
2021/06/24 06:38:12;;;;;;;21.40;7.70;;;;;;;;;;5055874;28;20084;-75
2021/06/24 06:40:39;;;;;;;10.23;7.05;;;;;;;;;;5061050;28;20068;-77
2021/06/24 06:43:06;;;;;;;13.77;7.30;;;;;;;;;;5058704;28;20028;-77
2021/06/24 06:45:33;;;;;;;9.05;6.82;;;;;;;;;;5056176;28;20025;-77
2021/06/24 06:48:00;;;;;;;9.38;7.32;;;;;;;;;;5060896;28;20016;-74
2021/06/24 06:50:26;;;;;;;16.42;7.45;;;;;;;;;;5058781;28;20020;-77
2021/06/24 06:52:52;;;;;;;14.25;7.20;;;;;;;;;;5061306;28;20094;-79
2021/06/24 06:55:18;;;;;;;11.43;7.37;;;;;;;;;;5060262;28;20482;-79
2021/06/24 06:57:44;;;;;;;12.03;7.03;;;;;;;;;;5057753;28;20044;-79
2021/06/24 07:00:11;;;;;;;12.15;7.07;;;;;;;;;;5056888;28;20032;-79
2021/06/24 07:02:38;;;;;;;8.80;6.85;;;;;;;;;;5059204;28;20029;-81
2021/06/24 07:05:04;;;;;;;10.55;6.57;;;;;;;;;;5058198;28;20033;-76
2021/06/24 07:07:30;;;;;;;13.95;6.75;;;;;;;;;;5054076;28;20013;-77
2021/06/24 07:09:56;;;;;;;9.93;6.93;;;;;;;;;;5054798;28;20060;-76
2021/06/24 07:12:23;;;;;;;18.50;7.38;;;;;;;;;;5059001;28;20114;-75
2021/06/24 07:14:49;;;;;;;14.10;6.80;;;;;;;;;;5055156;28;20030;-77
2021/06/24 07:17:15;;;;;;;14.25;7.00;;;;;;;;;;5055173;28;20052;-77
2021/06/24 07:19:42;;;;;;;14.35;6.93;;;;;;;;;;5058098;28;20029;-76
2021/06/24 07:22:08;;;;;;;15.30;7.53;;;;;;;;;;5055594;28;20025;-76
2021/06/24 07:24:34;;;;;;;18.60;7.15;;;;;;;;;;5060134;28;20116;-75
2021/06/24 07:27:00;;;;;;;18.83;6.57;;;;;;;;;;5064572;28;20029;-76
2021/06/24 07:29:26;;;;;;;21.30;6.87;;;;;;;;;;5064681;28;20032;-75
2021/06/24 07:31:52;;;;;;;14.98;6.72;;;;;;;;;;5059543;28;20117;-76
2021/06/24 07:34:18;;;;;;;16.93;7.90;;;;;;;;;;5057814;28;20636;-76
2021/06/24 07:36:45;;;;;;;16.08;6.80;;;;;;;;;;5054102;28;20373;-76
2021/06/24 07:39:13;;;;;;;20.05;7.90;;;;;;;;;;5054535;28;20950;-77
2021/06/24 07:41:39;;;;;;;13.57;8.38;;;;;;;;;;5056453;28;20055;-77
2021/06/24 07:44:05;;;;;;;16.17;8.97;;;;;;;;;;5059845;28;20650;-76
2021/06/24 07:46:31;;;;;;;19.73;9.93;;;;;;;;;;5059718;28;20486;-77
2021/06/24 07:48:58;;;;;;;17.40;10.25;;;;;;;;;;5059365;28;20100;-76
2021/06/24 07:51:23;;;;;;;23.27;11.03;;;;;;;;;;5059055;28;20116;-76
2021/06/24 07:53:50;;;;;;;24.00;11.70;;;;;;;;;;5060581;28;20100;-75
2021/06/24 07:56:16;;;;;;;22.57;11.70;;;;;;;;;;5062261;28;20029;-77
2021/06/24 07:58:43;;;;;;;22.42;11.75;;;;;;;;;;5062383;28;20289;-75
2021/06/24 08:01:09;;;;;;;23.98;12.35;;;;;;;;;;5056050;28;20032;-77
2021/06/24 08:03:36;;;;;;;22.05;12.57;;;;;;;;;;5057989;28;20036;-75
2021/06/24 08:06:03;;;;;;;20.52;11.75;;;;;;;;;;5059706;28;20078;-77
2021/06/24 08:08:28;;;;;;;;;;;;;;;;;;5057822;28;20032;-76
2021/06/24 08:10:58;;;;;;;19.90;11.38;;;;;;;;;;5058101;28;19954;-75
2021/06/24 08:13:26;;;;;;;19.92;10.75;;;;;;;;;;5059617;28;20484;-76
2021/06/24 08:15:53;;;;;;;16.55;10.13;;;;;;;;;;5056089;28;20032;-76
2021/06/24 08:18:19;;;;;;;20.75;10.57;;;;;;;;;;5057954;28;20074;-76
2021/06/24 08:20:46;;;;;;;15.70;10.02;;;;;;;;;;5059170;28;20380;-76
2021/06/24 08:23:12;;;;;;;15.43;9.60;;;;;;;;;;5058945;28;20020;-75
2021/06/24 08:25:38;;;;;;;14.35;9.57;;;;;;;;;;5058276;28;20021;-78
2021/06/24 08:28:05;;;;;;;15.33;9.37;;;;;;;;;;5055863;28;20037;-78
2021/06/24 08:30:32;;;;;;;12.02;9.10;;;;;;;;;;5057448;28;20013;-77
2021/06/24 08:32:58;;;;;;;15.00;9.77;;;;;;;;;;5057937;28;20442;-77
2021/06/24 08:35:24;;;;;;;16.70;9.47;;;;;;;;;;5058073;28;20397;-76
2021/06/24 08:37:50;;;;;;;13.00;9.33;;;;;;;;;;5056468;28;20382;-75
2021/06/24 08:40:16;;;;;;;12.68;9.50;;;;;;;;;;5058078;28;20328;-76
2021/06/24 08:42:42;;;;;;;12.50;9.20;;;;;;;;;;5057179;28;20021;-77
2021/06/24 08:45:11;;;;;;;12.40;9.13;;;;;;;;;;5057073;28;20024;-77
2021/06/24 08:47:37;;;;;;;13.93;9.52;;;;;;;;;;5057347;28;20250;-76
2021/06/24 08:50:03;;;;;;;15.17;9.47;;;;;;;;;;5058517;28;20037;-78
2021/06/24 08:52:29;;;;;;;13.77;8.77;;;;;;;;;;5057935;28;20024;-77
2021/06/24 08:54:55;;;;;;;12.10;8.75;;;;;;;;;;5056980;28;20516;-77
2021/06/24 08:57:21;;;;;;;12.18;8.80;;;;;;;;;;5056940;28;20029;-76
2021/06/24 08:59:47;;;;;;;9.93;8.87;;;;;;;;;;5056124;28;20107;-77
2021/06/24 09:02:17;;;;;;;11.17;8.67;;;;;;;;;;5056432;28;20622;-78
2021/06/24 09:04:47;;;;;;;11.38;8.57;;;;;;;;;;5056992;28;20027;-77
2021/06/24 09:07:24;;;;;;;14.32;8.75;;;;;;;;;;5055990;28;20033;-78
2021/06/24 09:09:50;;;;;;;;;;;;;;;;;;5057736;28;20021;-76
2021/06/24 09:12:16;;;;;;;12.02;9.18;;;;;;;;;;5057756;28;21268;-76
2021/06/24 09:14:43;;;;;;;14.65;8.85;;;;;;;;;;5057112;28;20029;-76
2021/06/24 09:17:13;;;;;;;11.15;8.88;;;;;;;;;;5056910;28;20050;-76
2021/06/24 09:19:40;;;;;;;13.40;8.80;;;;;;;;;;5056249;28;20525;-77
2021/06/24 09:22:08;;;;;;;9.85;8.25;;;;;;;;;;5057362;28;20428;-77
2021/06/24 09:24:34;;;;;;;9.70;8.25;;;;;;;;;;5057877;28;20021;-77
2021/06/24 09:27:01;;;;;;;14.07;8.82;;;;;;;;;;5055552;28;20024;-76
2021/06/24 09:29:28;;;;;;;10.82;8.07;;;;;;;;;;5056522;28;20028;-76
2021/06/24 09:31:55;;;;;;;9.07;8.00;;;;;;;;;;5055194;28;20037;-76
2021/06/24 09:34:22;;;;;;;9.00;8.10;;;;;;;;;;5057534;28;20315;-76
2021/06/24 09:36:48;;;;;;;;;;;;;;;;;;5049671;28;20485;-77
2021/06/24 09:39:23;;;;;;;13.20;8.38;;;;;;;;;;5050856;28;19989;-76
2021/06/24 09:41:57;;;;;;;12.32;8.50;;;;;;;;;;5056844;28;20013;-76
2021/06/24 09:44:26;;;;;;;16.23;8.65;;;;;;;;;;5056244;28;20056;-76
2021/06/24 09:46:52;;;;;;;9.73;8.20;;;;;;;;;;5062954;28;20024;-76
2021/06/24 09:49:26;;;;;;;10.98;8.32;;;;;;;;;;5056950;28;20123;-78
2021/06/24 09:51:53;;;;;;;11.68;8.43;;;;;;;;;;5058465;28;20086;-76
2021/06/24 09:54:20;;;;;;;16.70;8.48;;;;;;;;;;5060901;28;20052;-76
2021/06/24 09:56:48;;;;;;;13.38;7.70;;;;;;;;;;5057538;28;20033;-75
2021/06/24 09:59:15;;;;;;;13.05;8.27;;;;;;;;;;5057114;28;20161;-75
2021/06/24 10:01:43;;;;;;;15.32;8.18;;;;;;;;;;5058965;28;20915;-75
2021/06/24 10:04:21;;;;;;;9.55;7.70;;;;;;;;;;5059178;28;20489;-75
2021/06/24 10:06:48;;;;;;;11.48;7.68;;;;;;;;;;5056547;28;20056;-75
2021/06/24 10:09:14;;;;;;;12.48;7.60;;;;;;;;;;5056745;28;20036;-75
2021/06/24 10:11:40;;;;;;;13.67;8.00;;;;;;;;;;5056735;28;20791;-75
2021/06/24 10:14:11;;;;;;;15.43;8.43;;;;;;;;;;5057259;28;20032;-76
2021/06/24 10:16:37;;;;;;;10.43;7.43;;;;;;;;;;5056713;28;20021;-75
2021/06/24 10:19:04;;;;;;;12.75;7.47;;;;;;;;;;5057771;28;20032;-76
2021/06/24 10:21:32;;;;;;;15.35;7.93;;;;;;;;;;5061187;28;20029;-75
2021/06/24 10:24:02;;;;;;;11.55;7.60;;;;;;;;;;5051803;28;20025;-76
2021/06/24 10:26:30;;;;;;;12.52;8.20;;;;;;;;;;5055505;28;20549;-76
2021/06/24 10:29:12;;;;;;;10.75;7.40;;;;;;;;;;5060100;28;20040;-75
2021/06/24 10:31:43;;;;;;;11.75;7.70;;;;;;;;;;5057781;28;20024;-75
2021/06/24 10:34:10;;;;;;;12.13;7.68;;;;;;;;;;5055665;28;20090;-76
2021/06/24 10:36:36;;;;;;;10.73;7.45;;;;;;;;;;5056977;28;20031;-75
2021/06/24 10:39:03;;;;;;;9.37;7.13;;;;;;;;;;5055881;28;20052;-76
2021/06/24 10:41:49;;;;;;;13.88;7.50;;;;;;;;;;5053665;28;20055;-76
2021/06/24 10:44:35;;;;;;;9.80;7.40;;;;;;;;;;5057918;28;20034;-76
2021/06/24 10:47:05;;;;;;;11.15;7.53;;;;;;;;;;5057659;28;20030;-76
2021/06/24 10:49:31;;;;;;;9.13;6.75;;;;;;;;;;5057966;28;20100;-76
2021/06/24 10:52:26;;;;;;;12.23;7.27;;;;;;;;;;5059343;28;20050;-76
2021/06/24 10:54:55;;;;;;;12.60;7.47;;;;;;;;;;5056290;28;20031;-76
2021/06/24 10:57:34;;;;;;;10.48;7.75;;;;;;;;;;5056254;28;20033;-76
2021/06/24 11:00:19;;;;;;;11.18;8.07;;;;;;;;;;5055262;28;20099;-75
2021/06/24 11:02:49;;;;;;;8.77;7.90;;;;;;;;;;5054020;28;20045;-76
2021/06/24 11:05:21;;;;;;;10.05;7.88;;;;;;;;;;5060223;28;20064;-76
2021/06/24 11:07:49;;;;;;;13.35;8.13;;;;;;;;;;5060793;28;20143;-82
2021/06/24 11:10:20;;;;;;;9.57;8.55;;;;;;;;;;5059292;28;20035;-78
2021/06/24 11:12:56;;;;;;;13.20;8.20;;;;;;;;;;5058035;28;20020;-78
2021/06/24 11:15:41;;;;;;;10.45;8.05;;;;;;;;;;5057487;28;20082;-78
2021/06/24 11:18:07;;;;;;;11.15;9.00;;;;;;;;;;5061437;28;20020;-78
2021/06/24 11:20:43;;;;;;;11.43;8.53;;;;;;;;;;5061898;28;20096;-77
2021/06/24 11:23:39;;;;;;;15.23;7.97;;;;;;;;;;5058963;28;20122;-83
2021/06/24 11:26:11;;;;;;;11.85;8.65;;;;;;;;;;5035342;28;20033;-84
2021/06/24 11:28:45;;;;;;;11.73;8.48;;;;;;;;;;5054989;28;20040;-79
2021/06/24 11:31:13;;;;;;;16.67;9.07;;;;;;;;;;5065786;28;20415;-85
2021/06/24 11:33:54;;;;;;;15.52;8.90;;;;;;;;;;5056968;28;20116;-85
2021/06/24 11:36:20;;;;;;;13.13;8.57;;;;;;;;;;5056027;28;20146;-84
2021/06/24 11:38:50;;;;;;;11.32;8.77;;;;;;;;;;5055719;28;20548;-80
2021/06/24 11:41:17;;;;;;;13.65;8.93;;;;;;;;;;5053083;28;20120;-81
2021/06/24 11:43:58;;;;;;;12.52;8.90;;;;;;;;;;5054353;28;20067;-79
2021/06/24 11:46:31;;;;;;;11.82;8.65;;;;;;;;;;5051529;28;20043;-79
2021/06/24 11:49:27;;;;;;;13.07;8.73;;;;;;;;;;5044978;28;20032;-77
2021/06/24 12:03:17;;;;;;;16.23;8.55;;;;;;;;;;5047983;28;20411;-76
2021/06/24 12:05:50;;;;;;;14.00;8.30;;;;;;;;;;5057727;28;20021;-77
2021/06/24 12:08:26;;;;;;;13.73;8.45;;;;;;;;;;5057419;28;20028;-76
2021/06/24 12:11:09;;;;;;;15.85;8.13;;;;;;;;;;5061854;28;20732;-77
2021/06/24 12:13:37;;;;;;;13.38;8.52;;;;;;;;;;5061693;28;20385;-76
2021/06/24 12:16:04;;;;;;;19.20;8.73;;;;;;;;;;5058357;28;20033;-77
2021/06/24 12:18:33;;;;;;;13.95;8.82;;;;;;;;;;5058673;28;20033;-77
2021/06/24 12:21:03;;;;;;;13.43;9.00;;;;;;;;;;5064185;28;20031;-78
2021/06/24 12:23:29;;;;;;;15.00;8.93;;;;;;;;;;5067879;28;20039;-78
2021/06/24 12:25:58;;;;;;;13.13;8.95;;;;;;;;;;5068041;28;20409;-78
2021/06/24 12:28:25;;;;;;;12.82;8.90;;;;;;;;;;5065086;28;20029;-77
2021/06/24 12:30:51;;;;;;;14.48;8.70;;;;;;;;;;5062324;28;20998;-77
2021/06/24 12:33:19;;;;;;;14.25;8.85;;;;;;;;;;5061115;28;20029;-77
2021/06/24 12:35:47;;;;;;;11.93;9.15;;;;;;;;;;5059853;28;20021;-76
2021/06/24 12:38:18;;;;;;;12.02;9.00;;;;;;;;;;5057907;28;20060;-76
2021/06/24 12:40:47;;;;;;;12.52;9.02;;;;;;;;;;5058981;28;20044;-77
2021/06/24 12:43:33;;;;;;;11.35;9.13;;;;;;;;;;5057620;28;20024;-77
2021/06/24 12:46:00;;;;;;;;;;;;;;;;;;5059518;28;20441;-77
2021/06/24 12:48:33;;;;;;;10.25;9.20;;;;;;;;;;5057504;28;19909;-77
2021/06/24 12:51:01;;;;;;;11.55;9.27;;;;;;;;;;5058810;28;20028;-77
2021/06/24 12:53:29;;;;;;;9.38;8.38;;;;;;;;;;5058362;28;20131;-77
2021/06/24 12:55:55;;;;;;;10.73;9.68;;;;;;;;;;5057521;28;20040;-78
2021/06/24 12:58:21;;;;;;;15.53;9.77;;;;;;;;;;5058174;28;20028;-77
2021/06/24 13:00:59;;;;;;;10.65;9.00;;;;;;;;;;5057067;28;20070;-77
2021/06/24 13:03:40;;;;;;;11.18;9.20;;;;;;;;;;5057264;28;20110;-77
2021/06/24 13:06:25;;;;;;;12.60;9.25;;;;;;;;;;5057719;28;20021;-76
2021/06/24 13:09:15;;;;;;;13.63;9.45;;;;;;;;;;5057911;28;20029;-77
2021/06/24 13:11:53;;;;;;;12.75;9.57;;;;;;;;;;5057303;28;20050;-77
2021/06/24 13:14:20;;;;;;;10.65;8.55;;;;;;;;;;5058396;28;20082;-77
2021/06/24 13:16:55;;;;;;;9.27;8.38;;;;;;;;;;5057705;28;20025;-77
2021/06/24 13:19:24;;;;;;;10.68;8.77;;;;;;;;;;5057336;28;20025;-76
2021/06/24 13:21:52;;;;;;;13.30;9.13;;;;;;;;;;5066417;28;20050;-77
2021/06/24 13:24:19;;;;;;;11.13;8.60;;;;;;;;;;5065187;28;20023;-77
2021/06/24 13:26:45;;;;;;;9.90;8.80;;;;;;;;;;5071352;28;20020;-77
2021/06/24 13:29:18;;;;;;;10.02;8.60;;;;;;;;;;5072660;28;20034;-77
2021/06/24 13:31:45;;;;;;;10.38;8.00;;;;;;;;;;5069094;28;20099;-77
2021/06/24 13:34:13;;;;;;;9.23;7.95;;;;;;;;;;5070599;28;20027;-77
2021/06/24 13:36:40;;;;;;;9.55;7.97;;;;;;;;;;5065600;28;20028;-77
2021/06/24 13:39:07;;;;;;;9.30;7.72;;;;;;;;;;5062026;28;20432;-77
2021/06/24 13:41:34;;;;;;;8.65;7.70;;;;;;;;;;5054329;28;20115;-77
2021/06/24 13:44:11;;;;;;;8.63;7.72;;;;;;;;;;5054789;28;20012;-77
2021/06/24 13:46:38;;;;;;;8.93;7.70;;;;;;;;;;5057059;28;20683;-76
2021/06/24 13:49:05;;;;;;;7.70;6.93;;;;;;;;;;5056490;28;20041;-76
2021/06/24 13:51:31;;;;;;;11.15;6.95;;;;;;;;;;5055405;28;20067;-77
2021/06/24 13:53:58;;;;;;;8.50;6.50;;;;;;;;;;5054400;28;20028;-77
2021/06/24 13:56:24;;;;;;;7.00;6.22;;;;;;;;;;5055816;28;20024;-77
2021/06/24 13:58:50;;;;;;;8.07;6.25;;;;;;;;;;5056966;28;20020;-77
2021/06/24 14:01:16;;;;;;;7.50;6.33;;;;;;;;;;5054904;28;20016;-76
2021/06/24 14:03:44;;;;;;;8.05;6.78;;;;;;;;;;5056882;28;20082;-76
2021/06/24 14:06:10;;;;;;;7.43;6.47;;;;;;;;;;5056938;28;20047;-76
2021/06/24 14:08:36;;;;;;;8.38;6.38;;;;;;;;;;5056034;28;20029;-77
2021/06/24 14:11:02;;;;;;;7.93;7.13;;;;;;;;;;5056658;28;20474;-76
2021/06/24 14:13:28;;;;;;;7.35;6.65;;;;;;;;;;5056596;28;20469;-76
2021/06/24 14:15:54;;;;;;;7.57;6.77;;;;;;;;;;5055672;28;20036;-77
2021/06/24 14:18:20;;;;;;;6.50;5.87;;;;;;;;;;5055906;28;20028;-76
2021/06/24 14:20:46;;;;;;;10.70;6.90;;;;;;;;;;5056118;28;20100;-77
2021/06/24 14:23:16;;;;;;;7.20;6.50;;;;;;;;;;5056944;28;20550;-77
2021/06/24 14:25:44;;;;;;;7.60;6.78;;;;;;;;;;5053758;28;20195;-76
2021/06/24 14:28:10;;;;;;;8.02;6.50;;;;;;;;;;5054631;28;20028;-77
2021/06/24 14:30:36;;;;;;;8.07;7.25;;;;;;;;;;5055980;28;20029;-76
2021/06/24 14:33:02;;;;;;;7.13;6.43;;;;;;;;;;5055132;28;20150;-76
2021/06/24 14:35:28;;;;;;;6.53;5.93;;;;;;;;;;5054944;28;20397;-76
2021/06/24 14:37:55;;;;;;;7.55;6.70;;;;;;;;;;5055641;28;20525;-77
2021/06/24 14:40:21;;;;;;;6.97;6.28;;;;;;;;;;5055462;28;20025;-76
2021/06/24 14:42:47;;;;;;;7.25;6.18;;;;;;;;;;5056170;28;20417;-76
2021/06/24 14:45:14;;;;;;;6.90;6.27;;;;;;;;;;5061016;28;20021;-77
2021/06/24 14:47:41;;;;;;;8.23;6.00;;;;;;;;;;5059818;28;20021;-77
2021/06/24 14:50:07;;;;;;;13.27;6.07;;;;;;;;;;5057174;28;20033;-77
2021/06/24 14:52:33;;;;;;;15.63;6.20;;;;;;;;;;5061239;28;20025;-78